createdAt,value
2022-11-03T00:01:47.429Z,11.50
2022-11-03T00:04:16.931Z,14.80
2022-11-03T00:06:45.919Z,13.70
2022-11-03T00:09:14.807Z,10.80
2022-11-03T00:11:43.289Z,11.40
2022-11-03T00:14:11.870Z,12.60
2022-11-03T00:16:39.897Z,13.40
2022-11-03T00:19:08.623Z,10.40
2022-11-03T00:21:37.004Z,12.60
2022-11-03T00:24:05.294Z,12.50
2022-11-03T00:26:36.678Z,9.00
2022-11-03T00:29:14.752Z,12.20
2022-11-03T00:31:43.926Z,11.90
2022-11-03T00:34:12.009Z,12.00
2022-11-03T00:36:41.314Z,12.00
2022-11-03T00:39:09.723Z,14.30
2022-11-03T00:41:37.958Z,13.10
2022-11-03T00:44:06.430Z,11.90
2022-11-03T00:46:37.151Z,12.30
2022-11-03T00:49:05.542Z,11.40
2022-11-03T00:51:35.125Z,13.10
2022-11-03T00:54:04.352Z,10.80
2022-11-03T00:56:33.208Z,11.80
2022-11-03T00:59:02.027Z,11.40
2022-11-03T01:01:38.069Z,11.90
2022-11-03T01:04:28.371Z,13.60
2022-11-03T01:06:57.265Z,15.70
2022-11-03T01:09:26.405Z,12.90
2022-11-03T01:12:06.317Z,12.60
2022-11-03T01:14:51.279Z,11.50
2022-11-03T01:17:20.276Z,13.50
2022-11-03T01:19:48.238Z,13.50
2022-11-03T01:22:16.509Z,11.80
2022-11-03T01:24:44.376Z,13.90
2022-11-03T01:27:13.885Z,11.90
2022-11-03T01:29:41.628Z,13.00
2022-11-03T01:32:09.706Z,13.20
2022-11-03T01:34:37.721Z,12.90
2022-11-03T01:37:05.756Z,11.50
2022-11-03T01:39:33.622Z,13.20
2022-11-03T01:42:01.464Z,11.40
2022-11-03T01:44:31.198Z,16.90
2022-11-03T01:47:05.310Z,11.90
2022-11-03T01:49:42.287Z,12.20
2022-11-03T01:52:14.246Z,13.10
2022-11-03T01:54:43.227Z,16.20
2022-11-03T01:57:13.921Z,12.50
2022-11-03T01:59:43.073Z,12.90
2022-11-03T02:02:11.567Z,16.50
2022-11-03T02:04:39.580Z,13.90
2022-11-03T02:07:22.710Z,11.80
2022-11-03T02:09:50.820Z,13.30
2022-11-03T02:12:20.197Z,12.20
2022-11-03T02:14:55.047Z,13.70
2022-11-03T02:17:24.250Z,11.70
2022-11-03T02:19:56.118Z,11.70
2022-11-03T02:22:26.631Z,13.60
2022-11-03T02:25:16.924Z,11.50
2022-11-03T02:27:44.893Z,14.50
2022-11-03T02:30:13.166Z,12.50
2022-11-03T02:32:46.567Z,13.40
2022-11-03T02:35:20.986Z,12.30
2022-11-03T02:37:51.818Z,9.50
2022-11-03T02:40:22.565Z,11.50
2022-11-03T02:42:52.235Z,11.20
2022-11-03T02:45:21.356Z,12.40
2022-11-03T02:47:50.657Z,10.60
2022-11-03T02:50:20.185Z,10.90
2022-11-03T02:52:48.251Z,11.40
2022-11-03T02:55:34.854Z,12.50
2022-11-03T02:58:06.806Z,13.00
2022-11-03T03:00:39.243Z,15.20
2022-11-03T03:03:17.480Z,14.00
2022-11-03T03:05:45.642Z,17.10
2022-11-03T03:08:15.253Z,23.60
2022-11-03T03:10:44.661Z,23.90
2022-11-03T03:13:14.293Z,23.50
2022-11-03T03:15:54.817Z,15.00
2022-11-03T03:18:42.766Z,12.00
2022-11-03T03:21:15.550Z,10.40
2022-11-03T03:23:50.889Z,13.40
2022-11-03T03:26:21.011Z,14.30
2022-11-03T03:28:52.782Z,12.80
2022-11-03T03:31:21.555Z,13.70
2022-11-03T03:33:53.305Z,15.40
2022-11-03T03:36:25.285Z,10.90
2022-11-03T03:38:56.929Z,13.90
2022-11-03T03:41:25.666Z,10.30
2022-11-03T03:43:58.752Z,10.40
2022-11-03T03:46:29.233Z,12.00
2022-11-03T03:48:57.020Z,9.90
2022-11-03T03:51:26.195Z,12.50
2022-11-03T03:53:53.888Z,11.40
2022-11-03T03:56:24.483Z,11.00
2022-11-03T03:58:52.077Z,13.80
2022-11-03T04:01:19.829Z,15.00
2022-11-03T04:03:47.674Z,14.10
2022-11-03T04:06:15.435Z,13.80
2022-11-03T04:08:43.304Z,13.70
2022-11-03T04:11:29.701Z,18.90
2022-11-03T04:14:16.318Z,13.20
2022-11-03T04:17:02.572Z,11.20
2022-11-03T04:19:49.210Z,10.40
2022-11-03T04:22:17.049Z,11.60
2022-11-03T04:24:49.639Z,46.30
2022-11-03T04:27:37.068Z,78.90
2022-11-03T04:30:16.572Z,54.80
2022-11-03T04:32:45.224Z,23.80
2022-11-03T04:35:16.573Z,22.50
2022-11-03T04:37:48.383Z,19.30
2022-11-03T04:40:16.728Z,13.80
2022-11-03T04:42:45.093Z,14.10
2022-11-03T04:45:25.307Z,11.00
2022-11-03T04:47:53.127Z,11.00
2022-11-03T04:50:22.687Z,10.40
2022-11-03T04:53:00.486Z,11.40
2022-11-03T04:55:28.351Z,11.80
2022-11-03T04:58:00.624Z,35.90
2022-11-03T05:00:28.592Z,47.00
2022-11-03T05:02:56.753Z,37.00
2022-11-03T05:05:25.347Z,31.50
2022-11-03T05:07:54.645Z,18.30
2022-11-03T05:10:27.509Z,20.10
2022-11-03T05:12:56.183Z,17.70
2022-11-03T05:15:29.326Z,15.40
2022-11-03T05:17:58.956Z,17.10
2022-11-03T05:20:35.725Z,12.10
2022-11-03T05:23:05.862Z,13.00
2022-11-03T05:25:44.830Z,14.40
2022-11-03T05:28:26.724Z,36.50
2022-11-03T05:30:55.207Z,88.30
2022-11-03T05:33:26.424Z,60.80
2022-11-03T05:35:55.369Z,71.00
2022-11-03T05:38:23.612Z,26.20
2022-11-03T05:40:54.737Z,14.00
2022-11-03T05:43:22.601Z,15.30
2022-11-03T05:45:52.721Z,17.50
2022-11-03T05:48:20.435Z,19.00
2022-11-03T05:50:48.477Z,25.60
2022-11-03T05:53:29.265Z,23.20
2022-11-03T05:55:58.337Z,23.30
2022-11-03T05:58:36.241Z,22.30
2022-11-03T06:01:05.623Z,22.10
2022-11-03T06:03:35.852Z,21.30
2022-11-03T06:06:10.780Z,19.20
2022-11-03T06:08:41.564Z,19.70
2022-11-03T06:11:20.051Z,19.90
2022-11-03T06:13:47.678Z,17.20
2022-11-03T06:16:34.396Z,14.70
2022-11-03T06:19:05.643Z,17.20
2022-11-03T06:21:33.529Z,17.00
2022-11-03T06:24:01.293Z,20.70
2022-11-03T06:26:31.307Z,14.10
2022-11-03T06:29:00.305Z,16.50
2022-11-03T06:31:29.293Z,16.00
2022-11-03T06:34:00.738Z,15.20
2022-11-03T06:36:32.290Z,19.80
2022-11-03T06:39:04.240Z,23.50
2022-11-03T06:41:35.808Z,22.00
2022-11-03T06:44:16.369Z,19.60
2022-11-03T06:46:44.247Z,20.10
2022-11-03T06:49:32.125Z,19.20
2022-11-03T06:52:03.007Z,21.50
2022-11-03T06:54:30.646Z,20.90
2022-11-03T06:56:59.661Z,20.00
2022-11-03T06:59:27.423Z,20.70
2022-11-03T07:01:55.954Z,18.30
2022-11-03T07:04:29.094Z,30.10
2022-11-03T07:07:00.342Z,25.50
2022-11-03T07:09:28.207Z,14.10
2022-11-03T07:11:57.836Z,15.50
2022-11-03T07:14:28.444Z,15.60
2022-11-03T07:17:06.344Z,15.50
2022-11-03T07:19:35.827Z,14.60
2022-11-03T07:22:16.185Z,13.90
2022-11-03T07:24:45.479Z,15.90
2022-11-03T07:27:13.275Z,17.00
2022-11-03T07:29:41.138Z,15.80
2022-11-03T07:32:16.085Z,14.90
2022-11-03T07:34:44.581Z,19.60
2022-11-03T07:37:18.087Z,18.60
2022-11-03T07:39:46.145Z,14.80
2022-11-03T07:42:15.422Z,17.60
2022-11-03T07:44:43.281Z,18.80
2022-11-03T07:47:12.528Z,19.70
2022-11-03T07:49:41.155Z,17.20
2022-11-03T07:52:10.628Z,18.10
2022-11-03T07:54:38.433Z,15.60
2022-11-03T07:57:11.222Z,16.30
2022-11-03T07:59:49.628Z,13.30
2022-11-03T08:02:29.606Z,14.60
2022-11-03T08:04:58.697Z,14.30
2022-11-03T08:07:28.075Z,14.30
2022-11-03T08:09:56.042Z,14.80
2022-11-03T08:12:24.457Z,17.30
2022-11-03T08:14:53.384Z,16.10
2022-11-03T08:17:21.179Z,15.80
2022-11-03T08:19:49.067Z,15.00
2022-11-03T08:22:17.111Z,17.10
2022-11-03T08:24:44.882Z,17.50
2022-11-03T08:27:12.704Z,16.10
2022-11-03T08:29:41.180Z,13.70
2022-11-03T08:32:09.087Z,15.10
2022-11-03T08:34:36.956Z,15.60
2022-11-03T08:37:04.623Z,16.60
2022-11-03T08:39:32.603Z,16.10
2022-11-03T08:42:00.596Z,14.50
2022-11-03T08:44:28.523Z,16.30
2022-11-03T08:46:56.169Z,14.40
2022-11-03T08:49:23.945Z,13.60
2022-11-03T08:51:51.716Z,16.20
2022-11-03T08:54:19.581Z,15.20
2022-11-03T08:56:49.080Z,12.50
2022-11-03T08:59:18.354Z,14.70
2022-11-03T09:01:46.883Z,13.80
2022-11-03T09:04:15.033Z,13.70
2022-11-03T09:06:42.901Z,15.20
2022-11-03T09:11:58.496Z,14.40
2022-11-03T09:14:26.289Z,12.80
2022-11-03T09:16:54.052Z,15.70
2022-11-03T09:19:22.095Z,12.40
2022-11-03T09:21:49.865Z,10.60
2022-11-03T09:24:17.761Z,11.70
2022-11-03T09:26:45.487Z,12.20
2022-11-03T09:29:13.361Z,14.40
2022-11-03T09:31:41.013Z,14.70
2022-11-03T09:34:08.727Z,12.40
2022-11-03T09:36:37.053Z,9.00
2022-11-03T09:39:04.918Z,10.20
2022-11-03T09:41:53.854Z,11.10
2022-11-03T09:44:21.243Z,13.30
2022-11-03T09:46:55.170Z,11.40
2022-11-03T09:49:26.525Z,11.00
2022-11-03T09:51:56.069Z,9.30
2022-11-03T09:54:24.158Z,13.10
2022-11-03T09:56:51.781Z,12.40
2022-11-03T09:59:20.924Z,10.20
2022-11-03T10:01:50.274Z,10.40
2022-11-03T10:04:20.449Z,12.80
2022-11-03T10:06:48.206Z,11.90
2022-11-03T10:09:18.222Z,13.90
2022-11-03T10:11:46.491Z,11.50
2022-11-03T10:14:16.090Z,10.60
2022-11-03T10:16:53.162Z,9.30
2022-11-03T10:19:21.446Z,9.30
2022-11-03T10:21:49.827Z,11.00
2022-11-03T10:24:17.876Z,8.30
2022-11-03T10:26:48.381Z,10.70
2022-11-03T10:31:55.075Z,8.50
2022-11-03T10:34:23.612Z,9.00
2022-11-03T10:37:09.293Z,8.80
2022-11-03T10:39:37.698Z,9.20
2022-11-03T10:42:05.553Z,10.00
2022-11-03T10:44:33.911Z,7.80
2022-11-03T10:47:06.789Z,10.10
2022-11-03T10:49:43.357Z,9.50
2022-11-03T10:54:39.407Z,14.30
2022-11-03T10:57:07.173Z,8.30
2022-11-03T10:59:38.219Z,9.20
2022-11-03T11:02:26.539Z,12.40
2022-11-03T11:04:59.456Z,8.90
2022-11-03T11:07:39.373Z,9.60
2022-11-03T11:10:11.047Z,10.90
2022-11-03T11:12:39.238Z,8.70
2022-11-03T11:15:26.436Z,10.30
2022-11-03T11:17:54.302Z,10.80
2022-11-03T11:20:34.367Z,10.40
2022-11-03T11:23:21.983Z,6.50
2022-11-03T11:26:06.545Z,9.20
2022-11-03T11:28:34.494Z,9.00
2022-11-03T11:31:21.121Z,9.90
2022-11-03T11:33:49.492Z,6.80
2022-11-03T11:36:22.689Z,7.30
2022-11-03T11:38:55.503Z,7.70
2022-11-03T11:41:43.813Z,9.90
2022-11-03T11:44:31.849Z,8.00
2022-11-03T11:46:59.715Z,10.10
2022-11-03T11:49:27.798Z,8.30
2022-11-03T11:52:01.945Z,8.00
2022-11-03T11:54:29.767Z,7.40
2022-11-03T11:56:57.528Z,7.30
2022-11-03T11:59:26.131Z,9.40
2022-11-03T12:01:56.693Z,8.50
2022-11-03T12:04:31.496Z,7.00
2022-11-03T12:06:59.642Z,8.20
2022-11-03T12:09:28.030Z,7.70
2022-11-03T12:12:08.302Z,9.00
2022-11-03T12:14:37.932Z,8.80
2022-11-03T12:17:26.024Z,7.30
2022-11-03T12:19:54.777Z,7.30
2022-11-03T12:22:29.153Z,10.10
2022-11-03T12:24:57.851Z,7.20
2022-11-03T12:27:25.858Z,7.00
2022-11-03T12:29:54.982Z,8.90
2022-11-03T12:32:33.869Z,7.70
2022-11-03T12:35:08.604Z,7.10
2022-11-03T12:37:38.501Z,10.00
2022-11-03T12:40:06.815Z,10.40
2022-11-03T12:42:35.304Z,5.90
2022-11-03T12:45:03.491Z,6.80
2022-11-03T12:47:31.772Z,8.60
2022-11-03T12:50:00.470Z,9.60
2022-11-03T12:52:29.026Z,7.70
2022-11-03T12:54:57.394Z,6.00
2022-11-03T12:57:25.870Z,7.30
2022-11-03T12:59:54.173Z,7.50
2022-11-03T13:02:22.717Z,6.90
2022-11-03T13:04:51.025Z,8.00
2022-11-03T13:07:25.588Z,8.10
2022-11-03T13:09:55.854Z,10.00
2022-11-03T13:12:32.741Z,10.80
2022-11-03T13:15:07.720Z,7.30
2022-11-03T13:17:59.272Z,6.40
2022-11-03T13:20:23.672Z,7.40
2022-11-03T13:22:51.721Z,11.10
2022-11-03T13:25:20.135Z,7.70
2022-11-03T13:27:53.896Z,7.00
2022-11-03T13:30:23.020Z,7.80
2022-11-03T13:32:50.858Z,7.50
2022-11-03T13:35:20.237Z,5.60
2022-11-03T13:37:48.179Z,8.20
2022-11-03T13:40:50.485Z,10.40
2022-11-03T13:43:04.677Z,7.60
2022-11-03T13:45:33.161Z,7.50
2022-11-03T13:50:52.294Z,7.70
2022-11-03T13:56:11.519Z,8.00
2022-11-03T14:01:31.493Z,9.40
2022-11-03T14:06:47.000Z,9.50
2022-11-03T14:09:15.086Z,9.80
2022-11-03T14:12:01.585Z,9.70
2022-11-03T14:14:29.387Z,10.10
2022-11-03T14:16:57.263Z,6.70
2022-11-03T14:19:33.397Z,11.00
2022-11-03T14:22:04.726Z,9.70
2022-11-03T14:24:32.690Z,10.70
2022-11-03T14:27:00.456Z,12.40
2022-11-03T14:29:28.320Z,10.50
2022-11-03T14:31:56.595Z,8.20
2022-11-03T14:34:24.441Z,7.40
2022-11-03T14:36:52.833Z,10.30
2022-11-03T14:39:20.736Z,11.50
2022-11-03T14:42:03.683Z,9.70
2022-11-03T14:44:31.700Z,10.70
2022-11-03T14:47:01.660Z,13.20
2022-11-03T14:49:32.862Z,11.00
2022-11-03T14:52:02.055Z,15.60
2022-11-03T14:54:30.756Z,14.80
2022-11-03T14:56:58.608Z,10.20
2022-11-03T14:59:26.468Z,14.30
2022-11-03T15:01:55.061Z,10.40
2022-11-03T15:04:23.638Z,9.70
2022-11-03T15:06:51.560Z,11.70
2022-11-03T15:09:19.891Z,18.90
2022-11-03T15:11:48.038Z,13.20
2022-11-03T15:14:16.027Z,13.00
2022-11-03T15:16:46.265Z,14.80
2022-11-03T15:19:14.410Z,9.60
2022-11-03T15:21:42.289Z,11.50
2022-11-03T15:27:01.357Z,7.20
2022-11-03T15:29:29.123Z,10.70
2022-11-03T15:31:56.888Z,9.20
2022-11-03T15:34:24.650Z,10.60
2022-11-03T15:36:52.414Z,10.00
2022-11-03T15:39:20.486Z,11.40
2022-11-03T15:41:48.867Z,10.50
2022-11-03T15:44:16.909Z,6.50
2022-11-03T15:46:44.593Z,10.50
2022-11-03T15:49:12.273Z,12.00
2022-11-03T15:51:40.044Z,23.10
2022-11-03T15:54:09.223Z,23.10
2022-11-03T15:56:37.083Z,16.00
2022-11-03T15:59:05.057Z,10.50
2022-11-03T16:01:34.010Z,12.70
2022-11-03T16:04:02.327Z,14.10
2022-11-03T16:06:53.694Z,13.50
2022-11-03T16:09:17.713Z,11.10
2022-11-03T16:11:45.790Z,8.60
2022-11-03T16:14:14.092Z,8.90
2022-11-03T16:16:42.251Z,11.30
2022-11-03T16:19:10.594Z,9.60
2022-11-03T16:21:39.110Z,9.00
2022-11-03T16:24:07.877Z,13.00
2022-11-03T16:26:36.007Z,11.20
2022-11-03T16:29:04.752Z,33.50
2022-11-03T16:31:32.993Z,14.30
2022-11-03T16:34:00.990Z,12.30
2022-11-03T16:36:29.016Z,13.80
2022-11-03T16:38:57.448Z,10.50
2022-11-03T16:41:26.391Z,9.10
2022-11-03T16:43:54.365Z,11.30
2022-11-03T16:46:25.396Z,10.70
2022-11-03T16:48:54.401Z,9.70
2022-11-03T16:51:22.862Z,9.40
2022-11-03T16:53:53.078Z,10.80
2022-11-03T16:56:22.871Z,12.10
2022-11-03T16:58:51.241Z,10.40
2022-11-03T17:01:20.416Z,12.20
2022-11-03T17:03:50.087Z,9.00
2022-11-03T17:06:19.027Z,10.90
2022-11-03T17:08:52.961Z,12.20
2022-11-03T17:11:36.419Z,11.60
2022-11-03T17:14:06.569Z,10.10
2022-11-03T17:16:36.563Z,10.80
2022-11-03T17:19:06.859Z,10.50
2022-11-03T17:21:36.896Z,9.30
2022-11-03T17:24:06.845Z,11.20
2022-11-03T17:26:48.764Z,13.20
2022-11-03T17:29:19.426Z,9.60
2022-11-03T17:31:47.549Z,12.90
2022-11-03T17:34:16.734Z,11.10
2022-11-03T17:36:44.831Z,12.80
2022-11-03T17:39:15.134Z,11.00
2022-11-03T17:41:44.138Z,9.80
2022-11-03T17:44:13.341Z,10.30
2022-11-03T17:46:41.607Z,11.10
2022-11-03T17:49:12.718Z,13.80
2022-11-03T17:51:42.242Z,11.40
2022-11-03T17:54:17.414Z,11.80
2022-11-03T17:56:48.315Z,12.50
2022-11-03T17:59:16.386Z,10.80
2022-11-03T18:01:45.566Z,11.70
2022-11-03T18:06:43.383Z,12.70
2022-11-03T18:09:11.895Z,11.40
2022-11-03T18:12:00.708Z,15.80
2022-11-03T18:14:29.487Z,12.40
2022-11-03T18:16:59.650Z,15.70
2022-11-03T18:19:28.680Z,16.20
2022-11-03T18:21:56.774Z,14.80
2022-11-03T18:24:28.772Z,15.70
2022-11-03T18:26:57.333Z,18.50
2022-11-03T18:29:24.953Z,17.70
2022-11-03T18:31:52.953Z,14.90
2022-11-03T18:34:25.021Z,15.00
2022-11-03T18:36:53.071Z,15.60
2022-11-03T18:39:30.165Z,19.20
2022-11-03T18:44:30.822Z,13.90
2022-11-03T18:46:58.986Z,13.70
2022-11-03T18:49:27.731Z,13.70
2022-11-03T18:52:02.428Z,13.80
2022-11-03T18:54:31.619Z,14.80
2022-11-03T18:57:00.280Z,14.60
2022-11-03T18:59:30.895Z,14.00
2022-11-03T19:01:59.234Z,15.10
2022-11-03T19:04:30.242Z,14.00
2022-11-03T19:06:59.529Z,17.30
2022-11-03T19:09:29.937Z,15.70
2022-11-03T19:12:00.578Z,16.90
2022-11-03T19:14:32.060Z,15.40
2022-11-03T19:19:49.275Z,16.20
2022-11-03T19:22:18.873Z,18.70
2022-11-03T19:24:49.419Z,17.30
2022-11-03T19:27:24.010Z,18.10
2022-11-03T19:29:52.305Z,19.50
2022-11-03T19:32:23.350Z,19.10
2022-11-03T19:34:54.026Z,17.50
2022-11-03T19:37:22.048Z,17.30
2022-11-03T19:39:51.977Z,18.50
2022-11-03T19:42:37.006Z,16.70
2022-11-03T19:45:10.124Z,21.70
2022-11-03T19:50:35.610Z,17.40
2022-11-03T19:53:05.972Z,16.40
2022-11-03T19:55:39.358Z,17.60
2022-11-03T19:58:20.644Z,20.70
2022-11-03T20:00:52.343Z,18.20
2022-11-03T20:03:22.387Z,18.60
2022-11-03T20:05:55.349Z,17.60
2022-11-03T20:08:25.222Z,17.70
2022-11-03T20:10:53.805Z,18.60
2022-11-03T20:13:39.172Z,18.00
2022-11-03T20:16:14.321Z,22.50
2022-11-03T20:18:43.513Z,21.10
2022-11-03T20:21:15.680Z,14.80
2022-11-03T20:23:44.529Z,18.50
2022-11-03T20:26:15.317Z,19.60
2022-11-03T20:28:44.407Z,15.50
2022-11-03T20:31:13.179Z,19.40
2022-11-03T20:33:41.777Z,17.80
2022-11-03T20:36:17.266Z,21.30
2022-11-03T20:38:59.252Z,19.50
2022-11-03T20:41:28.519Z,15.50
2022-11-03T20:43:58.993Z,18.20
2022-11-03T20:46:29.356Z,18.70
2022-11-03T20:48:58.143Z,19.40
2022-11-03T20:51:38.022Z,17.10
2022-11-03T20:54:20.341Z,24.10
2022-11-03T20:56:51.242Z,22.30
2022-11-03T20:59:23.314Z,17.30
2022-11-03T21:01:52.152Z,16.00
2022-11-03T21:04:20.874Z,16.70
2022-11-03T21:06:49.556Z,15.00
2022-11-03T21:09:18.814Z,21.00
2022-11-03T21:11:48.088Z,16.80
2022-11-03T21:14:17.671Z,21.40
2022-11-03T21:17:05.289Z,17.20
2022-11-03T21:19:43.611Z,15.40
2022-11-03T21:22:30.876Z,18.30
2022-11-03T21:25:02.715Z,15.90
2022-11-03T21:27:31.064Z,21.00
2022-11-03T21:30:00.769Z,17.80
2022-11-03T21:32:31.342Z,16.10
2022-11-03T21:34:59.451Z,21.00
2022-11-03T21:37:27.749Z,17.30
2022-11-03T21:39:55.659Z,17.30
2022-11-03T21:42:42.332Z,17.00
2022-11-03T21:45:10.226Z,19.50
2022-11-03T21:47:38.048Z,18.90
2022-11-03T21:50:06.326Z,20.20
2022-11-03T21:52:34.708Z,20.60
2022-11-03T21:55:04.879Z,21.90
2022-11-03T21:57:33.357Z,15.80
2022-11-03T22:00:01.109Z,17.40
2022-11-03T22:02:30.257Z,17.60
2022-11-03T22:04:58.952Z,18.50
2022-11-03T22:07:31.112Z,18.00
2022-11-03T22:09:59.097Z,17.60
2022-11-03T22:12:27.372Z,19.60
2022-11-03T22:15:15.206Z,18.20
2022-11-03T22:17:46.442Z,20.00
2022-11-03T22:20:34.086Z,19.90
2022-11-03T22:23:22.247Z,20.00
2022-11-03T22:26:08.751Z,23.20
2022-11-03T22:31:24.003Z,17.80
2022-11-03T22:36:38.991Z,17.80
2022-11-03T22:39:26.101Z,21.20
2022-11-03T22:42:13.122Z,17.20
2022-11-03T22:44:59.930Z,19.00
2022-11-03T22:47:28.324Z,18.20
2022-11-03T22:49:56.276Z,18.80
2022-11-03T22:52:24.452Z,18.10
2022-11-03T22:54:52.497Z,19.70
2022-11-03T22:57:21.724Z,21.80
2022-11-03T22:59:50.315Z,18.40
2022-11-03T23:02:18.471Z,22.60
2022-11-03T23:04:48.106Z,18.70
2022-11-03T23:07:15.838Z,19.90
2022-11-03T23:09:43.487Z,22.70
2022-11-03T23:12:11.607Z,19.00
2022-11-03T23:14:58.998Z,18.10
2022-11-03T23:17:46.712Z,20.40
2022-11-03T23:20:33.332Z,18.90
2022-11-03T23:23:01.198Z,20.30
2022-11-03T23:25:29.065Z,20.20
2022-11-03T23:27:56.879Z,18.50
2022-11-03T23:30:24.597Z,19.80
2022-11-03T23:32:52.359Z,19.70
2022-11-03T23:35:20.012Z,20.10
2022-11-03T23:37:47.677Z,17.60
2022-11-03T23:40:18.869Z,22.80
2022-11-03T23:42:49.557Z,17.50
2022-11-03T23:45:36.160Z,20.20
2022-11-03T23:48:23.071Z,19.10
2022-11-03T23:50:52.579Z,16.90
2022-11-03T23:53:20.236Z,20.20
2022-11-03T23:56:07.050Z,22.60
2022-11-03T23:58:34.744Z,19.90
